createdAt,value
2018-06-18T00:01:28.934Z,18.43
2018-06-18T00:03:56.613Z,18.47
2018-06-18T00:06:24.222Z,18.40
2018-06-18T00:08:51.970Z,18.32
2018-06-18T00:11:19.789Z,18.39
2018-06-18T00:13:47.366Z,18.37
2018-06-18T00:16:15.269Z,18.39
2018-06-18T00:18:42.878Z,18.37
2018-06-18T00:21:10.552Z,18.34
2018-06-18T00:23:38.346Z,18.28
2018-06-18T00:26:05.879Z,18.26
2018-06-18T00:28:33.618Z,18.20
2018-06-18T00:31:01.374Z,18.19
2018-06-18T00:33:29.008Z,18.18
2018-06-18T00:35:56.895Z,18.14
2018-06-18T00:38:24.418Z,18.13
2018-06-18T00:40:52.135Z,18.07
2018-06-18T00:43:19.996Z,18.08
2018-06-18T00:45:47.619Z,18.06
2018-06-18T00:48:15.527Z,18.06
2018-06-18T00:50:43.419Z,18.06
2018-06-18T00:53:10.978Z,18.06
2018-06-18T00:55:50.065Z,18.05
2018-06-18T00:58:17.643Z,18.04
2018-06-18T01:00:45.551Z,18.04
2018-06-18T01:03:13.373Z,18.03
2018-06-18T01:05:41.002Z,18.04
2018-06-18T01:08:08.687Z,18.03
2018-06-18T01:10:36.805Z,18.00
2018-06-18T01:13:04.388Z,18.01
2018-06-18T01:15:32.142Z,18.02
2018-06-18T01:18:00.029Z,18.11
2018-06-18T01:20:27.644Z,18.05
2018-06-18T01:23:07.575Z,17.98
2018-06-18T01:25:35.186Z,17.94
2018-06-18T01:28:03.135Z,17.95
2018-06-18T01:30:31.047Z,17.94
2018-06-18T01:32:58.638Z,17.98
2018-06-18T01:35:26.813Z,18.03
2018-06-18T01:37:54.808Z,18.02
2018-06-18T01:40:22.359Z,18.00
2018-06-18T01:42:50.199Z,18.02
2018-06-18T01:45:18.536Z,18.00
2018-06-18T01:47:46.099Z,18.01
2018-06-18T01:50:13.943Z,18.00
2018-06-18T01:52:42.907Z,18.02
2018-06-18T01:55:10.456Z,17.98
2018-06-18T01:57:38.263Z,17.95
2018-06-18T02:00:06.063Z,17.92
2018-06-18T02:02:33.700Z,17.86
2018-06-18T02:05:01.638Z,17.82
2018-06-18T02:07:29.501Z,17.77
2018-06-18T02:09:57.056Z,17.75
2018-06-18T02:12:24.807Z,17.74
2018-06-18T02:14:52.563Z,17.73
2018-06-18T02:17:20.176Z,17.69
2018-06-18T02:19:47.999Z,17.59
2018-06-18T02:22:15.575Z,17.62
2018-06-18T02:24:43.182Z,17.58
2018-06-18T02:27:16.268Z,17.57
2018-06-18T02:29:50.302Z,17.60
2018-06-18T02:32:23.673Z,17.66
2018-06-18T02:34:56.834Z,17.69
2018-06-18T02:37:30.303Z,17.65
2018-06-18T02:40:03.354Z,17.52
2018-06-18T02:42:31.093Z,17.27
2018-06-18T02:44:58.979Z,17.22
2018-06-18T02:47:26.652Z,17.25
2018-06-18T02:49:54.644Z,17.42
2018-06-18T02:52:22.416Z,17.42
2018-06-18T02:54:49.961Z,17.55
2018-06-18T02:57:17.946Z,17.63
2018-06-18T02:59:45.556Z,17.70
2018-06-18T03:02:13.212Z,17.79
2018-06-18T03:04:41.017Z,17.81
2018-06-18T03:07:08.546Z,17.84
2018-06-18T03:09:36.332Z,17.88
2018-06-18T03:12:03.923Z,17.94
2018-06-18T03:14:31.676Z,17.96
2018-06-18T03:16:59.219Z,18.01
2018-06-18T03:19:32.704Z,18.02
2018-06-18T03:22:05.757Z,18.08
2018-06-18T03:24:39.230Z,18.07
2018-06-18T03:27:12.371Z,18.06
2018-06-18T03:29:40.230Z,18.08
2018-06-18T03:32:10.231Z,18.06
2018-06-18T03:34:38.139Z,18.04
2018-06-18T03:37:07.428Z,18.07
2018-06-18T03:39:35.052Z,18.07
2018-06-18T03:42:02.930Z,18.13
2018-06-18T03:45:33.842Z,18.16
2018-06-18T03:48:04.490Z,18.12
2018-06-18T03:50:32.331Z,18.17
2018-06-18T03:52:59.895Z,18.14
2018-06-18T03:55:29.735Z,18.18
2018-06-18T03:57:57.627Z,18.19
2018-06-18T04:00:27.246Z,18.15
2018-06-18T04:03:02.179Z,18.15
2018-06-18T04:05:35.247Z,18.11
2018-06-18T04:08:10.787Z,18.08
2018-06-18T04:10:44.330Z,18.07
2018-06-18T04:13:12.062Z,18.05
2018-06-18T04:15:39.611Z,18.07
2018-06-18T04:18:07.568Z,18.02
2018-06-18T04:20:46.313Z,17.99
2018-06-18T04:23:13.891Z,17.96
2018-06-18T04:25:41.419Z,17.94
2018-06-18T04:28:08.968Z,17.90
2018-06-18T04:30:36.607Z,17.89
2018-06-18T04:33:04.661Z,17.92
2018-06-18T04:35:32.194Z,17.91
2018-06-18T04:37:59.729Z,17.93
2018-06-18T04:40:27.280Z,17.95
2018-06-18T04:43:00.317Z,17.96
2018-06-18T04:45:33.347Z,17.97
2018-06-18T04:48:06.445Z,17.96
2018-06-18T04:50:39.496Z,17.98
2018-06-18T04:53:07.088Z,18.06
2018-06-18T04:55:34.611Z,18.14
2018-06-18T04:58:02.139Z,18.25
2018-06-18T05:00:43.868Z,18.33
2018-06-18T05:03:11.412Z,18.46
2018-06-18T05:05:38.931Z,18.57
2018-06-18T05:08:16.916Z,18.66
2018-06-18T05:10:44.435Z,18.86
2018-06-18T05:13:11.945Z,18.99
2018-06-18T05:15:40.386Z,19.12
2018-06-18T05:18:08.009Z,19.23
2018-06-18T05:20:35.547Z,19.32
2018-06-18T05:23:07.657Z,19.44
2018-06-18T05:25:35.302Z,19.38
2018-06-18T05:28:02.814Z,19.43
2018-06-18T05:30:30.773Z,19.47
2018-06-18T05:32:58.399Z,19.56
2018-06-18T05:35:26.851Z,19.65
2018-06-18T05:38:00.894Z,19.65
2018-06-18T05:40:28.398Z,19.75
2018-06-18T05:42:55.918Z,19.76
2018-06-18T05:45:23.461Z,19.81
2018-06-18T05:47:50.971Z,19.75
2018-06-18T05:50:18.488Z,19.78
2018-06-18T05:52:46.027Z,19.77
2018-06-18T05:55:13.555Z,19.78
2018-06-18T05:57:41.089Z,19.92
2018-06-18T06:00:08.734Z,19.87
2018-06-18T06:02:36.244Z,19.59
2018-06-18T06:05:03.877Z,19.45
2018-06-18T06:07:31.475Z,19.44
2018-06-18T06:09:59.023Z,19.51
2018-06-18T06:12:26.518Z,19.51
2018-06-18T06:14:54.190Z,19.63
2018-06-18T06:17:21.733Z,19.78
2018-06-18T06:19:49.426Z,19.89
2018-06-18T06:22:17.210Z,19.89
2018-06-18T06:24:44.966Z,20.01
2018-06-18T06:27:12.478Z,19.91
2018-06-18T06:29:40.049Z,19.75
2018-06-18T06:32:07.551Z,19.85
2018-06-18T06:34:35.083Z,19.85
2018-06-18T06:37:02.647Z,19.76
2018-06-18T06:39:30.159Z,19.74
2018-06-18T06:42:21.042Z,19.59
2018-06-18T06:44:48.570Z,19.59
2018-06-18T06:47:16.094Z,19.70
2018-06-18T06:49:43.809Z,19.84
2018-06-18T06:52:11.345Z,20.00
2018-06-18T06:54:38.883Z,20.19
2018-06-18T06:57:06.465Z,20.40
2018-06-18T06:59:33.968Z,20.53
2018-06-18T07:02:01.508Z,20.68
2018-06-18T07:04:29.064Z,20.77
2018-06-18T07:06:57.058Z,20.76
2018-06-18T07:09:24.542Z,20.80
2018-06-18T07:11:52.078Z,20.87
2018-06-18T07:14:19.587Z,20.94
2018-06-18T07:16:47.102Z,20.98
2018-06-18T07:19:14.652Z,20.99
2018-06-18T07:21:42.163Z,21.01
2018-06-18T07:24:09.686Z,20.82
2018-06-18T07:26:37.238Z,20.82
2018-06-18T07:29:04.822Z,20.72
2018-06-18T07:31:32.344Z,20.79
2018-06-18T07:33:59.903Z,21.00
2018-06-18T07:36:27.430Z,21.18
2018-06-18T07:38:54.946Z,20.94
2018-06-18T07:41:22.471Z,20.99
2018-06-18T07:43:50.038Z,21.00
2018-06-18T07:46:17.551Z,21.36
2018-06-18T07:48:45.107Z,21.76
2018-06-18T07:51:12.614Z,22.37
2018-06-18T07:53:40.145Z,23.10
2018-06-18T07:56:07.724Z,23.25
2018-06-18T07:58:35.283Z,23.20
2018-06-18T08:01:02.826Z,23.10
2018-06-18T08:03:30.368Z,23.12
2018-06-18T08:05:57.898Z,23.18
2018-06-18T08:08:25.414Z,23.10
2018-06-18T08:10:52.983Z,23.01
2018-06-18T08:13:20.493Z,22.91
2018-06-18T08:15:48.031Z,22.83
2018-06-18T08:18:15.562Z,22.89
2018-06-18T08:20:43.082Z,22.88
2018-06-18T08:23:10.610Z,23.02
2018-06-18T08:25:38.154Z,23.13
2018-06-18T08:28:05.736Z,23.32
2018-06-18T08:30:33.295Z,23.43
2018-06-18T08:33:00.874Z,23.66
2018-06-18T08:35:28.372Z,23.88
2018-06-18T08:37:55.888Z,23.96
2018-06-18T08:40:23.437Z,24.07
2018-06-18T08:42:50.966Z,24.16
2018-06-18T08:45:18.479Z,24.08
2018-06-18T08:47:46.042Z,23.55
2018-06-18T08:50:19.225Z,23.27
2018-06-18T08:52:52.394Z,23.16
2018-06-18T08:55:25.616Z,22.91
2018-06-18T08:57:58.806Z,22.71
2018-06-18T09:01:31.823Z,22.66
2018-06-18T09:04:05.030Z,22.56
2018-06-18T09:06:32.562Z,22.64
2018-06-18T09:09:00.092Z,22.82
2018-06-18T09:11:27.722Z,23.03
2018-06-18T09:13:55.248Z,23.26
2018-06-18T09:16:22.754Z,23.22
2018-06-18T09:18:50.669Z,23.37
2018-06-18T09:21:18.178Z,23.53
2018-06-18T09:23:45.718Z,23.43
2018-06-18T09:26:13.320Z,23.43
2018-06-18T09:28:40.803Z,23.58
2018-06-18T09:31:08.337Z,23.65
2018-06-18T09:33:35.892Z,23.90
2018-06-18T09:36:03.475Z,24.33
2018-06-18T09:38:31.839Z,24.99
2018-06-18T09:40:59.378Z,24.96
2018-06-18T09:43:26.893Z,24.94
2018-06-18T09:45:54.415Z,25.20
2018-06-18T09:48:26.490Z,25.51
2018-06-18T09:51:00.435Z,25.83
2018-06-18T09:53:33.549Z,25.21
2018-06-18T09:56:06.553Z,24.80
2018-06-18T09:58:39.631Z,24.70
2018-06-18T10:01:44.363Z,24.54
2018-06-18T10:04:11.918Z,24.85
2018-06-18T10:06:39.779Z,25.17
2018-06-18T10:09:09.603Z,26.25
2018-06-18T10:11:37.335Z,26.45
2018-06-18T10:14:06.575Z,26.26
2018-06-18T10:16:34.098Z,25.96
2018-06-18T10:19:01.650Z,25.55
2018-06-18T10:21:29.423Z,26.37
2018-06-18T10:23:57.290Z,27.00
2018-06-18T10:26:24.841Z,26.62
2018-06-18T10:28:52.375Z,25.73
2018-06-18T10:31:20.191Z,25.03
2018-06-18T10:33:53.414Z,24.44
2018-06-18T10:36:26.576Z,24.12
2018-06-18T10:38:59.674Z,24.05
2018-06-18T10:41:32.872Z,25.32
2018-06-18T10:44:00.412Z,26.63
2018-06-18T10:46:28.017Z,28.02
2018-06-18T10:48:55.659Z,28.69
2018-06-18T10:51:23.182Z,28.45
2018-06-18T10:53:50.722Z,27.68
2018-06-18T10:56:18.267Z,27.93
2018-06-18T10:58:45.830Z,28.58
2018-06-18T11:01:19.550Z,29.28
2018-06-18T11:03:47.156Z,29.91
2018-06-18T11:06:20.197Z,29.83
2018-06-18T11:08:47.754Z,28.98
2018-06-18T11:11:15.281Z,29.38
2018-06-18T11:13:42.795Z,28.86
2018-06-18T11:16:10.569Z,27.57
2018-06-18T11:18:43.480Z,28.76
2018-06-18T11:21:16.749Z,28.56
2018-06-18T11:23:49.758Z,29.93
2018-06-18T11:26:22.917Z,29.13
2018-06-18T11:28:50.322Z,29.59
2018-06-18T11:31:17.863Z,29.44
2018-06-18T11:33:45.415Z,30.81
2018-06-18T11:36:12.922Z,31.70
2018-06-18T11:38:40.441Z,30.58
2018-06-18T11:41:07.979Z,29.17
2018-06-18T11:43:35.563Z,28.09
2018-06-18T11:46:03.127Z,27.53
2018-06-18T11:48:30.697Z,29.51
2018-06-18T11:50:58.395Z,30.13
2018-06-18T11:53:25.909Z,30.44
2018-06-18T11:55:53.514Z,31.68
2018-06-18T11:58:26.580Z,32.51
2018-06-18T12:00:59.886Z,32.15
2018-06-18T12:03:33.026Z,31.83
2018-06-18T12:06:06.242Z,32.97
2018-06-18T12:08:39.338Z,33.42
2018-06-18T12:11:07.039Z,34.20
2018-06-18T12:13:34.563Z,34.60
2018-06-18T12:16:02.071Z,34.25
2018-06-18T12:18:29.610Z,33.66
2018-06-18T12:20:57.162Z,34.79
2018-06-18T12:23:24.679Z,35.37
2018-06-18T12:25:52.218Z,35.66
2018-06-18T12:28:19.739Z,35.41
2018-06-18T12:30:47.258Z,32.52
2018-06-18T12:33:14.802Z,30.99
2018-06-18T12:35:42.338Z,33.00
2018-06-18T12:38:09.854Z,34.55
2018-06-18T12:40:37.419Z,35.26
2018-06-18T12:43:05.026Z,35.65
2018-06-18T12:45:38.403Z,36.48
2018-06-18T12:48:11.666Z,33.93
2018-06-18T12:50:44.790Z,32.84
2018-06-18T12:53:18.065Z,32.08
2018-06-18T12:55:51.166Z,34.09
2018-06-18T12:58:18.687Z,35.35
2018-06-18T13:00:46.238Z,36.08
2018-06-18T13:03:15.055Z,34.29
2018-06-18T13:05:42.578Z,32.54
2018-06-18T13:08:10.158Z,31.16
2018-06-18T13:10:37.699Z,30.44
2018-06-18T13:13:05.242Z,29.44
2018-06-18T13:15:32.746Z,28.76
2018-06-18T13:18:00.301Z,28.37
2018-06-18T13:20:27.851Z,27.60
2018-06-18T13:22:55.946Z,27.38
2018-06-18T13:25:23.602Z,27.11
2018-06-18T13:27:56.802Z,26.98
2018-06-18T13:30:24.394Z,27.30
2018-06-18T13:32:52.302Z,27.28
2018-06-18T13:35:19.851Z,27.00
2018-06-18T13:37:53.015Z,26.74
2018-06-18T13:40:25.954Z,26.23
2018-06-18T13:42:59.074Z,26.42
2018-06-18T13:45:32.266Z,26.57
2018-06-18T13:49:06.847Z,26.70
2018-06-18T13:51:34.362Z,26.04
2018-06-18T13:54:01.890Z,25.77
2018-06-18T13:56:29.446Z,25.61
2018-06-18T13:58:56.990Z,25.80
2018-06-18T14:01:24.494Z,25.81
2018-06-18T14:03:52.062Z,25.67
2018-06-18T14:06:19.590Z,25.53
2018-06-18T14:08:47.125Z,25.20
2018-06-18T14:11:14.675Z,24.97
2018-06-18T14:13:42.266Z,25.29
2018-06-18T14:16:09.758Z,25.51
2018-06-18T14:18:37.327Z,25.50
2018-06-18T14:21:04.859Z,25.55
2018-06-18T14:23:32.514Z,25.64
2018-06-18T14:26:00.087Z,25.92
2018-06-18T14:28:27.597Z,26.13
2018-06-18T14:31:00.730Z,26.42
2018-06-18T14:33:33.766Z,28.53
2018-06-18T14:36:06.879Z,31.05
2018-06-18T14:38:39.950Z,32.28
2018-06-18T14:41:08.155Z,33.06
2018-06-18T14:43:35.677Z,33.30
2018-06-18T14:46:03.198Z,33.69
2018-06-18T14:48:30.858Z,32.73
2018-06-18T14:50:58.358Z,31.05
2018-06-18T14:53:25.871Z,29.48
2018-06-18T14:56:00.102Z,28.07
2018-06-18T14:58:27.594Z,27.44
2018-06-18T15:00:55.118Z,26.81
2018-06-18T15:03:22.653Z,26.52
2018-06-18T15:05:50.162Z,26.62
2018-06-18T15:08:17.676Z,26.44
2018-06-18T15:10:50.797Z,26.54
2018-06-18T15:13:18.357Z,26.32
2018-06-18T15:15:51.671Z,26.15
2018-06-18T15:18:19.170Z,26.01
2018-06-18T15:20:47.301Z,25.92
2018-06-18T15:23:14.867Z,26.11
2018-06-18T15:25:46.299Z,26.48
2018-06-18T15:28:13.982Z,26.56
2018-06-18T15:30:41.527Z,26.48
2018-06-18T15:33:09.018Z,26.35
2018-06-18T15:35:36.663Z,26.16
2018-06-18T15:38:04.384Z,26.02
2018-06-18T15:40:32.201Z,25.76
2018-06-18T15:42:59.965Z,25.83
2018-06-18T15:45:27.511Z,25.92
2018-06-18T15:47:55.014Z,25.81
2018-06-18T15:50:22.552Z,26.00
2018-06-18T15:52:50.133Z,25.99
2018-06-18T15:55:17.902Z,25.87
2018-06-18T15:57:45.554Z,25.77
2018-06-18T16:00:13.276Z,25.67
2018-06-18T16:02:41.019Z,25.48
2018-06-18T16:05:08.579Z,25.36
2018-06-18T16:07:36.312Z,25.26
2018-06-18T16:10:04.114Z,25.05
2018-06-18T16:12:31.818Z,24.83
2018-06-18T16:14:59.419Z,24.77
2018-06-18T16:17:26.961Z,24.80
2018-06-18T16:19:54.570Z,24.86
2018-06-18T16:22:22.350Z,24.85
2018-06-18T16:24:49.911Z,24.85
2018-06-18T16:27:17.626Z,24.84
2018-06-18T16:29:45.237Z,24.83
2018-06-18T16:32:12.746Z,24.83
2018-06-18T16:34:40.310Z,24.86
2018-06-18T16:37:07.898Z,24.84
2018-06-18T16:39:35.409Z,24.84
2018-06-18T16:42:03.479Z,24.71
2018-06-18T16:44:31.031Z,24.65
2018-06-18T16:46:58.566Z,24.71
2018-06-18T16:49:26.102Z,24.72
2018-06-18T16:51:53.639Z,24.68
2018-06-18T16:54:21.182Z,24.73
2018-06-18T16:56:48.707Z,24.70
2018-06-18T16:59:16.282Z,24.70
2018-06-18T17:01:43.808Z,24.73
2018-06-18T17:04:11.330Z,24.72
2018-06-18T17:06:38.878Z,24.75
2018-06-18T17:09:08.031Z,24.79
2018-06-18T17:11:35.530Z,24.68
2018-06-18T17:14:03.422Z,24.70
2018-06-18T17:16:31.015Z,24.64
2018-06-18T17:18:58.531Z,24.60
2018-06-18T17:21:26.146Z,24.49
2018-06-18T17:23:53.757Z,24.53
2018-06-18T17:26:21.315Z,24.52
2018-06-18T17:28:48.878Z,24.42
2018-06-18T17:31:16.400Z,24.30
2018-06-18T17:33:43.969Z,24.23
2018-06-18T17:36:11.525Z,24.23
2018-06-18T17:38:39.046Z,24.23
2018-06-18T17:41:06.611Z,24.30
2018-06-18T17:43:34.253Z,24.31
2018-06-18T17:46:01.786Z,24.20
2018-06-18T17:48:30.564Z,24.29
2018-06-18T17:50:58.167Z,24.27
2018-06-18T17:53:32.210Z,24.21
2018-06-18T17:55:59.753Z,24.23
2018-06-18T17:58:27.270Z,24.16
2018-06-18T18:00:54.810Z,24.18
2018-06-18T18:03:22.393Z,24.16
2018-06-18T18:05:50.073Z,24.00
2018-06-18T18:08:17.629Z,24.02
2018-06-18T18:10:45.207Z,23.85
2018-06-18T18:13:15.029Z,23.72
2018-06-18T18:15:42.675Z,23.63
2018-06-18T18:18:10.283Z,23.58
2018-06-18T18:20:37.837Z,23.56
2018-06-18T18:23:05.583Z,23.51
2018-06-18T18:25:34.150Z,23.45
2018-06-18T18:28:01.770Z,23.38
2018-06-18T18:30:29.435Z,23.42
2018-06-18T18:32:57.466Z,23.43
2018-06-18T18:35:25.351Z,23.47
2018-06-18T18:37:53.161Z,23.48
2018-06-18T18:40:21.201Z,23.46
2018-06-18T18:42:48.935Z,23.42
2018-06-18T18:45:16.728Z,23.31
2018-06-18T18:47:44.539Z,23.20
2018-06-18T18:50:12.401Z,23.15
2018-06-18T18:52:40.012Z,23.19
2018-06-18T18:55:49.088Z,23.16
2018-06-18T18:58:27.834Z,23.16
2018-06-18T19:00:55.599Z,23.14
2018-06-18T19:03:25.022Z,23.11
2018-06-18T19:05:53.650Z,23.08
2018-06-18T19:08:26.551Z,23.08
2018-06-18T19:10:54.610Z,23.09
2018-06-18T19:13:24.833Z,23.07
2018-06-18T19:15:53.925Z,23.06
2018-06-18T19:18:21.758Z,22.98
2018-06-18T19:21:20.048Z,22.93
2018-06-18T19:23:47.606Z,22.92
2018-06-18T19:26:15.166Z,22.94
2018-06-18T19:28:42.702Z,23.01
2018-06-18T19:31:14.605Z,23.03
2018-06-18T19:34:16.063Z,23.02
2018-06-18T19:36:48.829Z,22.98
2018-06-18T19:39:16.602Z,22.99
2018-06-18T19:41:44.289Z,23.02
2018-06-18T19:44:11.996Z,23.05
2018-06-18T19:47:30.635Z,23.03
2018-06-18T19:49:58.333Z,22.98
2018-06-18T19:52:25.986Z,22.98
2018-06-18T19:54:57.162Z,23.03
2018-06-18T19:57:25.006Z,23.05
2018-06-18T19:59:52.739Z,23.00
2018-06-18T20:02:21.622Z,22.96
2018-06-18T20:04:49.436Z,22.86
2018-06-18T20:07:17.799Z,22.86
2018-06-18T20:09:45.528Z,22.81
2018-06-18T20:12:13.347Z,22.79
2018-06-18T20:14:41.145Z,22.70
2018-06-18T20:17:08.962Z,22.59
2018-06-18T20:19:36.746Z,22.50
2018-06-18T20:22:04.777Z,22.39
2018-06-18T20:24:32.572Z,22.41
2018-06-18T20:27:00.289Z,22.41
2018-06-18T20:29:27.939Z,22.35
2018-06-18T20:31:55.782Z,22.33
2018-06-18T20:34:23.523Z,22.33
2018-06-18T20:36:51.262Z,22.31
2018-06-18T20:39:19.042Z,22.26
2018-06-18T20:41:46.883Z,22.22
2018-06-18T20:44:19.362Z,22.17
2018-06-18T20:46:47.179Z,22.13
2018-06-18T20:49:15.032Z,22.07
2018-06-18T20:51:43.310Z,21.97
2018-06-18T20:54:11.707Z,21.97
2018-06-18T20:56:39.566Z,21.97
2018-06-18T20:59:08.495Z,21.94
2018-06-18T21:01:36.151Z,21.91
2018-06-18T21:04:03.974Z,21.89
2018-06-18T21:06:31.775Z,21.73
2018-06-18T21:08:59.526Z,21.70
2018-06-18T21:11:27.289Z,21.72
2018-06-18T21:13:55.142Z,21.75
2018-06-18T21:16:22.950Z,21.77
2018-06-18T21:18:50.848Z,21.77
2018-06-18T21:21:18.553Z,21.76
2018-06-18T21:23:46.199Z,21.72
2018-06-18T21:26:13.824Z,21.69
2018-06-18T21:28:41.643Z,21.69
2018-06-18T21:31:09.471Z,21.69
2018-06-18T21:33:37.436Z,21.68
2018-06-18T21:36:05.686Z,21.70
2018-06-18T21:38:33.573Z,21.64
2018-06-18T21:41:01.482Z,21.51
2018-06-18T21:43:29.361Z,21.56
2018-06-18T21:45:57.176Z,21.56
2018-06-18T21:48:24.927Z,21.54
2018-06-18T21:50:52.655Z,21.56
2018-06-18T21:53:20.343Z,21.68
2018-06-18T21:55:47.902Z,21.71
2018-06-18T21:58:15.652Z,21.66
2018-06-18T22:00:45.754Z,21.68
2018-06-18T22:03:13.693Z,21.73
2018-06-18T22:05:41.543Z,21.61
2018-06-18T22:08:10.849Z,21.51
2018-06-18T22:10:38.576Z,21.37
2018-06-18T22:13:07.199Z,21.32
2018-06-18T22:15:34.950Z,21.29
2018-06-18T22:18:02.630Z,21.32
2018-06-18T22:20:30.201Z,21.42
2018-06-18T22:22:57.959Z,21.41
2018-06-18T22:25:25.579Z,21.42
2018-06-18T22:27:53.511Z,21.39
2018-06-18T22:30:21.160Z,21.37
2018-06-18T22:32:48.706Z,21.37
2018-06-18T22:35:16.253Z,21.33
2018-06-18T22:37:43.915Z,21.35
2018-06-18T22:40:11.543Z,21.36
2018-06-18T22:42:39.102Z,21.32
2018-06-18T22:45:08.771Z,21.25
2018-06-18T22:47:36.357Z,21.29
2018-06-18T22:50:04.101Z,21.33
2018-06-18T22:52:31.635Z,21.28
2018-06-18T22:54:59.183Z,21.21
2018-06-18T22:57:26.748Z,21.12
2018-06-18T22:59:54.321Z,21.01
2018-06-18T23:02:25.391Z,20.99
2018-06-18T23:04:53.104Z,20.93
2018-06-18T23:07:20.737Z,20.83
2018-06-18T23:09:48.295Z,20.83
2018-06-18T23:12:16.999Z,20.78
2018-06-18T23:14:44.956Z,20.74
2018-06-18T23:17:12.550Z,20.78
2018-06-18T23:19:40.149Z,20.80
2018-06-18T23:22:07.717Z,20.72
2018-06-18T23:24:35.254Z,20.67
2018-06-18T23:27:02.844Z,20.74
2018-06-18T23:29:30.395Z,20.79
2018-06-18T23:31:57.950Z,20.69
2018-06-18T23:34:25.545Z,20.62
2018-06-18T23:36:53.280Z,20.65
2018-06-18T23:39:20.839Z,20.66
2018-06-18T23:41:50.742Z,20.59
2018-06-18T23:44:18.294Z,20.58
2018-06-18T23:46:45.983Z,20.56
2018-06-18T23:49:13.609Z,20.56
2018-06-18T23:51:41.174Z,20.53
2018-06-18T23:54:08.699Z,20.52
2018-06-18T23:56:36.292Z,20.41
2018-06-18T23:59:03.894Z,20.29
